sensor_id;sensor_type;location;lat;lon;timestamp;P1;durP1;ratioP1;P2;durP2;ratioP2
58366;SDS011;57745;42.524;12.052;2023-02-28T00:00:20;2.47;;;1.48;;
58366;SDS011;57745;42.524;12.052;2023-02-28T00:02:46;2.17;;;1.05;;
58366;SDS011;57745;42.524;12.052;2023-02-28T00:05:13;2.25;;;1.10;;
58366;SDS011;57745;42.524;12.052;2023-02-28T00:07:41;2.05;;;1.17;;
58366;SDS011;57745;42.524;12.052;2023-02-28T00:10:08;1.45;;;1.10;;
58366;SDS011;57745;42.524;12.052;2023-02-28T00:12:36;2.20;;;1.00;;
58366;SDS011;57745;42.524;12.052;2023-02-28T00:15:04;3.20;;;1.08;;
58366;SDS011;57745;42.524;12.052;2023-02-28T00:17:31;2.35;;;1.10;;
58366;SDS011;57745;42.524;12.052;2023-02-28T00:19:56;1.77;;;1.08;;
58366;SDS011;57745;42.524;12.052;2023-02-28T00:22:26;1.98;;;0.98;;
58366;SDS011;57745;42.524;12.052;2023-02-28T00:24:52;1.15;;;0.73;;
58366;SDS011;57745;42.524;12.052;2023-02-28T00:27:17;1.67;;;1.00;;
58366;SDS011;57745;42.524;12.052;2023-02-28T00:29:43;3.20;;;1.13;;
58366;SDS011;57745;42.524;12.052;2023-02-28T00:32:08;2.08;;;0.93;;
58366;SDS011;57745;42.524;12.052;2023-02-28T00:34:33;2.65;;;1.13;;
58366;SDS011;57745;42.524;12.052;2023-02-28T00:37:03;2.35;;;1.30;;
58366;SDS011;57745;42.524;12.052;2023-02-28T00:39:35;1.67;;;1.05;;
58366;SDS011;57745;42.524;12.052;2023-02-28T00:42:02;2.53;;;1.60;;
58366;SDS011;57745;42.524;12.052;2023-02-28T00:44:28;1.95;;;1.50;;
58366;SDS011;57745;42.524;12.052;2023-02-28T00:46:54;2.00;;;1.40;;
58366;SDS011;57745;42.524;12.052;2023-02-28T00:49:20;3.35;;;1.33;;
58366;SDS011;57745;42.524;12.052;2023-02-28T00:51:46;3.00;;;1.60;;
58366;SDS011;57745;42.524;12.052;2023-02-28T00:54:12;2.08;;;1.45;;
58366;SDS011;57745;42.524;12.052;2023-02-28T00:56:37;2.65;;;1.40;;
58366;SDS011;57745;42.524;12.052;2023-02-28T00:59:03;1.63;;;1.08;;
58366;SDS011;57745;42.524;12.052;2023-02-28T01:01:28;2.05;;;1.20;;
58366;SDS011;57745;42.524;12.052;2023-02-28T01:03:54;2.97;;;1.10;;
58366;SDS011;57745;42.524;12.052;2023-02-28T01:06:19;3.40;;;1.13;;
58366;SDS011;57745;42.524;12.052;2023-02-28T01:08:44;1.20;;;0.90;;
58366;SDS011;57745;42.524;12.052;2023-02-28T01:11:10;2.42;;;1.00;;
58366;SDS011;57745;42.524;12.052;2023-02-28T01:13:36;1.75;;;0.80;;
58366;SDS011;57745;42.524;12.052;2023-02-28T01:16:02;2.15;;;0.80;;
58366;SDS011;57745;42.524;12.052;2023-02-28T01:18:27;1.48;;;0.85;;
58366;SDS011;57745;42.524;12.052;2023-02-28T01:20:53;2.28;;;1.00;;
58366;SDS011;57745;42.524;12.052;2023-02-28T01:23:20;2.63;;;0.70;;
58366;SDS011;57745;42.524;12.052;2023-02-28T01:25:48;1.40;;;0.80;;
58366;SDS011;57745;42.524;12.052;2023-02-28T01:28:14;2.47;;;0.82;;
58366;SDS011;57745;42.524;12.052;2023-02-28T01:30:40;1.15;;;0.80;;
58366;SDS011;57745;42.524;12.052;2023-02-28T01:33:05;1.65;;;0.90;;
58366;SDS011;57745;42.524;12.052;2023-02-28T01:35:34;1.95;;;0.80;;
58366;SDS011;57745;42.524;12.052;2023-02-28T01:38:00;1.45;;;0.95;;
58366;SDS011;57745;42.524;12.052;2023-02-28T01:40:27;2.40;;;1.00;;
58366;SDS011;57745;42.524;12.052;2023-02-28T01:42:52;1.80;;;1.10;;
58366;SDS011;57745;42.524;12.052;2023-02-28T01:45:20;2.90;;;0.70;;
58366;SDS011;57745;42.524;12.052;2023-02-28T01:47:54;1.40;;;0.95;;
58366;SDS011;57745;42.524;12.052;2023-02-28T01:50:23;3.38;;;0.88;;
58366;SDS011;57745;42.524;12.052;2023-02-28T01:52:54;2.22;;;0.90;;
58366;SDS011;57745;42.524;12.052;2023-02-28T01:55:25;2.42;;;1.10;;
58366;SDS011;57745;42.524;12.052;2023-02-28T01:57:54;1.23;;;0.68;;
58366;SDS011;57745;42.524;12.052;2023-02-28T02:00:23;2.13;;;1.02;;
58366;SDS011;57745;42.524;12.052;2023-02-28T02:02:53;2.25;;;1.08;;
58366;SDS011;57745;42.524;12.052;2023-02-28T02:05:28;3.35;;;0.85;;
58366;SDS011;57745;42.524;12.052;2023-02-28T02:08:03;2.45;;;1.20;;
58366;SDS011;57745;42.524;12.052;2023-02-28T02:22:26;1.88;;;1.00;;
58366;SDS011;57745;42.524;12.052;2023-02-28T02:41:52;1.80;;;1.00;;
58366;SDS011;57745;42.524;12.052;2023-02-28T02:44:20;3.15;;;1.38;;
58366;SDS011;57745;42.524;12.052;2023-02-28T02:46:53;2.13;;;1.00;;
58366;SDS011;57745;42.524;12.052;2023-02-28T02:49:24;2.10;;;1.20;;
58366;SDS011;57745;42.524;12.052;2023-02-28T02:51:55;2.17;;;1.02;;
58366;SDS011;57745;42.524;12.052;2023-02-28T02:54:29;2.97;;;1.17;;
58366;SDS011;57745;42.524;12.052;2023-02-28T02:57:02;1.40;;;1.00;;
58366;SDS011;57745;42.524;12.052;2023-02-28T02:59:30;2.65;;;1.23;;
58366;SDS011;57745;42.524;12.052;2023-02-28T03:01:59;2.28;;;1.13;;
58366;SDS011;57745;42.524;12.052;2023-02-28T03:04:27;1.63;;;1.10;;
58366;SDS011;57745;42.524;12.052;2023-02-28T03:06:57;4.80;;;1.10;;
58366;SDS011;57745;42.524;12.052;2023-02-28T03:09:23;1.60;;;1.10;;
58366;SDS011;57745;42.524;12.052;2023-02-28T03:11:53;2.25;;;0.98;;
58366;SDS011;57745;42.524;12.052;2023-02-28T03:25:29;1.92;;;1.13;;
58366;SDS011;57745;42.524;12.052;2023-02-28T03:28:00;1.40;;;1.00;;
58366;SDS011;57745;42.524;12.052;2023-02-28T03:33:06;3.60;;;1.55;;
58366;SDS011;57745;42.524;12.052;2023-02-28T03:35:41;1.20;;;0.95;;
58366;SDS011;57745;42.524;12.052;2023-02-28T03:38:54;1.60;;;1.10;;
58366;SDS011;57745;42.524;12.052;2023-02-28T03:41:21;2.20;;;0.90;;
58366;SDS011;57745;42.524;12.052;2023-02-28T03:43:56;1.80;;;1.10;;
58366;SDS011;57745;42.524;12.052;2023-02-28T03:46:39;1.75;;;1.25;;
58366;SDS011;57745;42.524;12.052;2023-02-28T03:49:17;1.90;;;1.27;;
58366;SDS011;57745;42.524;12.052;2023-02-28T03:51:48;1.90;;;1.20;;
58366;SDS011;57745;42.524;12.052;2023-02-28T03:54:18;2.40;;;1.10;;
58366;SDS011;57745;42.524;12.052;2023-02-28T03:56:51;2.93;;;1.10;;
58366;SDS011;57745;42.524;12.052;2023-02-28T03:59:32;2.85;;;1.35;;
58366;SDS011;57745;42.524;12.052;2023-02-28T04:01:59;2.05;;;0.90;;
58366;SDS011;57745;42.524;12.052;2023-02-28T04:04:24;3.33;;;1.20;;
58366;SDS011;57745;42.524;12.052;2023-02-28T04:06:52;2.22;;;1.20;;
58366;SDS011;57745;42.524;12.052;2023-02-28T04:09:25;1.25;;;1.02;;
58366;SDS011;57745;42.524;12.052;2023-02-28T04:11:51;1.40;;;1.00;;
58366;SDS011;57745;42.524;12.052;2023-02-28T04:14:18;2.08;;;1.08;;
58366;SDS011;57745;42.524;12.052;2023-02-28T04:16:43;1.67;;;0.93;;
58366;SDS011;57745;42.524;12.052;2023-02-28T04:19:10;2.92;;;1.05;;
58366;SDS011;57745;42.524;12.052;2023-02-28T04:21:40;1.75;;;0.90;;
58366;SDS011;57745;42.524;12.052;2023-02-28T04:24:09;1.85;;;1.05;;
58366;SDS011;57745;42.524;12.052;2023-02-28T04:26:39;4.18;;;1.70;;
58366;SDS011;57745;42.524;12.052;2023-02-28T04:29:13;1.67;;;0.85;;
58366;SDS011;57745;42.524;12.052;2023-02-28T04:31:43;2.40;;;1.42;;
58366;SDS011;57745;42.524;12.052;2023-02-28T04:34:08;1.55;;;0.98;;
58366;SDS011;57745;42.524;12.052;2023-02-28T04:36:33;2.30;;;0.90;;
58366;SDS011;57745;42.524;12.052;2023-02-28T04:38:59;2.00;;;1.00;;
58366;SDS011;57745;42.524;12.052;2023-02-28T04:41:25;1.25;;;0.90;;
58366;SDS011;57745;42.524;12.052;2023-02-28T04:43:51;3.75;;;0.90;;
58366;SDS011;57745;42.524;12.052;2023-02-28T04:46:17;1.27;;;0.90;;
58366;SDS011;57745;42.524;12.052;2023-02-28T04:48:43;1.40;;;1.05;;
58366;SDS011;57745;42.524;12.052;2023-02-28T04:51:10;4.57;;;0.98;;
58366;SDS011;57745;42.524;12.052;2023-02-28T04:53:38;1.50;;;1.00;;
58366;SDS011;57745;42.524;12.052;2023-02-28T04:56:05;3.33;;;2.60;;
58366;SDS011;57745;42.524;12.052;2023-02-28T04:58:32;2.33;;;1.00;;
58366;SDS011;57745;42.524;12.052;2023-02-28T05:01:04;1.67;;;1.00;;
58366;SDS011;57745;42.524;12.052;2023-02-28T05:03:38;2.45;;;0.98;;
58366;SDS011;57745;42.524;12.052;2023-02-28T05:06:07;1.20;;;0.80;;
58366;SDS011;57745;42.524;12.052;2023-02-28T05:08:33;1.52;;;0.93;;
58366;SDS011;57745;42.524;12.052;2023-02-28T05:10:59;2.10;;;1.25;;
58366;SDS011;57745;42.524;12.052;2023-02-28T05:13:28;1.20;;;1.00;;
58366;SDS011;57745;42.524;12.052;2023-02-28T05:15:54;2.00;;;1.02;;
58366;SDS011;57745;42.524;12.052;2023-02-28T05:18:20;1.77;;;1.00;;
58366;SDS011;57745;42.524;12.052;2023-02-28T05:20:46;1.42;;;0.85;;
58366;SDS011;57745;42.524;12.052;2023-02-28T05:23:12;3.75;;;0.95;;
58366;SDS011;57745;42.524;12.052;2023-02-28T05:25:38;1.73;;;1.00;;
58366;SDS011;57745;42.524;12.052;2023-02-28T05:28:05;1.20;;;0.90;;
58366;SDS011;57745;42.524;12.052;2023-02-28T05:30:31;1.73;;;1.08;;
58366;SDS011;57745;42.524;12.052;2023-02-28T05:32:57;2.30;;;1.00;;
58366;SDS011;57745;42.524;12.052;2023-02-28T05:35:23;1.58;;;0.82;;
58366;SDS011;57745;42.524;12.052;2023-02-28T05:37:49;1.10;;;0.90;;
58366;SDS011;57745;42.524;12.052;2023-02-28T05:40:15;1.23;;;1.02;;
58366;SDS011;57745;42.524;12.052;2023-02-28T05:42:40;1.80;;;0.90;;
58366;SDS011;57745;42.524;12.052;2023-02-28T05:45:06;1.50;;;0.93;;
58366;SDS011;57745;42.524;12.052;2023-02-28T05:47:33;1.95;;;1.30;;
58366;SDS011;57745;42.524;12.052;2023-02-28T05:49:58;2.00;;;1.05;;
58366;SDS011;57745;42.524;12.052;2023-02-28T05:52:25;1.77;;;0.90;;
58366;SDS011;57745;42.524;12.052;2023-02-28T05:54:50;2.05;;;0.90;;
58366;SDS011;57745;42.524;12.052;2023-02-28T05:57:16;2.05;;;1.02;;
58366;SDS011;57745;42.524;12.052;2023-02-28T05:59:41;5.00;;;1.00;;
58366;SDS011;57745;42.524;12.052;2023-02-28T06:02:12;1.20;;;0.85;;
58366;SDS011;57745;42.524;12.052;2023-02-28T06:04:39;2.22;;;1.00;;
58366;SDS011;57745;42.524;12.052;2023-02-28T06:07:06;4.03;;;1.20;;
58366;SDS011;57745;42.524;12.052;2023-02-28T06:09:32;1.98;;;1.00;;
58366;SDS011;57745;42.524;12.052;2023-02-28T06:11:58;1.88;;;0.90;;
58366;SDS011;57745;42.524;12.052;2023-02-28T06:14:24;1.08;;;0.85;;
58366;SDS011;57745;42.524;12.052;2023-02-28T06:16:50;1.40;;;0.90;;
58366;SDS011;57745;42.524;12.052;2023-02-28T06:19:15;1.55;;;0.88;;
58366;SDS011;57745;42.524;12.052;2023-02-28T06:21:41;4.00;;;1.25;;
58366;SDS011;57745;42.524;12.052;2023-02-28T06:24:07;1.55;;;1.45;;
58366;SDS011;57745;42.524;12.052;2023-02-28T06:26:33;1.75;;;1.23;;
58366;SDS011;57745;42.524;12.052;2023-02-28T06:28:58;2.03;;;1.65;;
58366;SDS011;57745;42.524;12.052;2023-02-28T06:31:25;1.67;;;1.42;;
58366;SDS011;57745;42.524;12.052;2023-02-28T06:33:51;3.30;;;1.10;;
58366;SDS011;57745;42.524;12.052;2023-02-28T06:36:16;1.35;;;0.95;;
58366;SDS011;57745;42.524;12.052;2023-02-28T06:38:43;1.42;;;1.08;;
58366;SDS011;57745;42.524;12.052;2023-02-28T06:41:09;2.65;;;1.23;;
58366;SDS011;57745;42.524;12.052;2023-02-28T06:43:37;1.80;;;1.27;;
58366;SDS011;57745;42.524;12.052;2023-02-28T06:46:06;2.25;;;1.40;;
58366;SDS011;57745;42.524;12.052;2023-02-28T06:48:33;3.05;;;1.27;;
58366;SDS011;57745;42.524;12.052;2023-02-28T06:51:03;2.03;;;1.40;;
58366;SDS011;57745;42.524;12.052;2023-02-28T06:53:33;1.98;;;1.10;;
58366;SDS011;57745;42.524;12.052;2023-02-28T06:55:59;1.90;;;1.40;;
58366;SDS011;57745;42.524;12.052;2023-02-28T06:58:24;1.67;;;1.00;;
58366;SDS011;57745;42.524;12.052;2023-02-28T07:00:51;2.95;;;1.42;;
58366;SDS011;57745;42.524;12.052;2023-02-28T07:03:17;2.67;;;1.15;;
58366;SDS011;57745;42.524;12.052;2023-02-28T07:05:44;2.30;;;1.25;;
58366;SDS011;57745;42.524;12.052;2023-02-28T07:08:10;3.15;;;1.88;;
58366;SDS011;57745;42.524;12.052;2023-02-28T07:10:39;2.13;;;1.52;;
58366;SDS011;57745;42.524;12.052;2023-02-28T07:13:05;1.48;;;1.27;;
58366;SDS011;57745;42.524;12.052;2023-02-28T07:15:33;1.50;;;1.05;;
58366;SDS011;57745;42.524;12.052;2023-02-28T07:17:59;2.08;;;1.35;;
58366;SDS011;57745;42.524;12.052;2023-02-28T07:20:24;1.55;;;0.93;;
58366;SDS011;57745;42.524;12.052;2023-02-28T07:22:50;1.80;;;1.30;;
58366;SDS011;57745;42.524;12.052;2023-02-28T07:25:27;1.90;;;1.23;;
58366;SDS011;57745;42.524;12.052;2023-02-28T07:27:54;2.20;;;1.20;;
58366;SDS011;57745;42.524;12.052;2023-02-28T07:30:21;1.98;;;1.00;;
58366;SDS011;57745;42.524;12.052;2023-02-28T07:32:47;1.73;;;1.20;;
58366;SDS011;57745;42.524;12.052;2023-02-28T07:35:12;2.95;;;1.10;;
58366;SDS011;57745;42.524;12.052;2023-02-28T07:37:40;3.10;;;1.25;;
58366;SDS011;57745;42.524;12.052;2023-02-28T07:40:07;1.48;;;1.08;;
58366;SDS011;57745;42.524;12.052;2023-02-28T07:42:35;1.88;;;1.33;;
58366;SDS011;57745;42.524;12.052;2023-02-28T07:45:01;1.67;;;1.20;;
58366;SDS011;57745;42.524;12.052;2023-02-28T07:47:28;1.25;;;0.93;;
58366;SDS011;57745;42.524;12.052;2023-02-28T07:49:54;1.80;;;1.20;;
58366;SDS011;57745;42.524;12.052;2023-02-28T07:52:19;2.83;;;1.58;;
58366;SDS011;57745;42.524;12.052;2023-02-28T07:54:45;3.45;;;1.40;;
58366;SDS011;57745;42.524;12.052;2023-02-28T07:57:10;3.33;;;1.90;;
58366;SDS011;57745;42.524;12.052;2023-02-28T07:59:36;2.55;;;1.60;;
58366;SDS011;57745;42.524;12.052;2023-02-28T08:02:01;2.47;;;1.42;;
58366;SDS011;57745;42.524;12.052;2023-02-28T08:04:27;3.17;;;1.88;;
58366;SDS011;57745;42.524;12.052;2023-02-28T08:06:54;2.42;;;1.33;;
58366;SDS011;57745;42.524;12.052;2023-02-28T08:09:21;2.25;;;1.55;;
58366;SDS011;57745;42.524;12.052;2023-02-28T08:11:46;2.50;;;1.38;;
58366;SDS011;57745;42.524;12.052;2023-02-28T08:14:12;1.88;;;1.35;;
58366;SDS011;57745;42.524;12.052;2023-02-28T08:16:38;1.95;;;1.10;;
58366;SDS011;57745;42.524;12.052;2023-02-28T08:19:04;3.75;;;1.17;;
58366;SDS011;57745;42.524;12.052;2023-02-28T08:21:30;1.80;;;1.20;;
58366;SDS011;57745;42.524;12.052;2023-02-28T08:23:55;1.55;;;1.20;;
58366;SDS011;57745;42.524;12.052;2023-02-28T08:26:21;1.40;;;1.10;;
58366;SDS011;57745;42.524;12.052;2023-02-28T08:28:47;2.53;;;0.90;;
58366;SDS011;57745;42.524;12.052;2023-02-28T08:31:13;2.25;;;0.75;;
58366;SDS011;57745;42.524;12.052;2023-02-28T08:33:40;1.80;;;1.20;;
58366;SDS011;57745;42.524;12.052;2023-02-28T08:36:06;2.03;;;0.80;;
58366;SDS011;57745;42.524;12.052;2023-02-28T08:38:32;2.13;;;1.45;;
58366;SDS011;57745;42.524;12.052;2023-02-28T08:40:59;1.75;;;1.15;;
58366;SDS011;57745;42.524;12.052;2023-02-28T08:43:26;1.70;;;1.10;;
58366;SDS011;57745;42.524;12.052;2023-02-28T08:45:53;1.92;;;1.05;;
58366;SDS011;57745;42.524;12.052;2023-02-28T08:48:21;1.63;;;0.80;;
58366;SDS011;57745;42.524;12.052;2023-02-28T08:51:06;0.80;;;0.80;;
58366;SDS011;57745;42.524;12.052;2023-02-28T08:53:37;1.73;;;0.95;;
58366;SDS011;57745;42.524;12.052;2023-02-28T08:56:07;2.08;;;1.10;;
58366;SDS011;57745;42.524;12.052;2023-02-28T08:58:39;1.63;;;1.13;;
58366;SDS011;57745;42.524;12.052;2023-02-28T09:01:12;1.52;;;1.00;;
58366;SDS011;57745;42.524;12.052;2023-02-28T09:03:40;2.90;;;1.35;;
58366;SDS011;57745;42.524;12.052;2023-02-28T09:06:07;2.83;;;1.00;;
58366;SDS011;57745;42.524;12.052;2023-02-28T09:08:34;1.67;;;0.90;;
58366;SDS011;57745;42.524;12.052;2023-02-28T09:11:00;3.80;;;1.00;;
58366;SDS011;57745;42.524;12.052;2023-02-28T09:13:27;2.95;;;1.15;;
58366;SDS011;57745;42.524;12.052;2023-02-28T09:15:53;1.67;;;1.00;;
58366;SDS011;57745;42.524;12.052;2023-02-28T09:18:19;1.73;;;0.90;;
58366;SDS011;57745;42.524;12.052;2023-02-28T09:20:45;2.15;;;1.20;;
58366;SDS011;57745;42.524;12.052;2023-02-28T09:23:11;1.50;;;1.10;;
58366;SDS011;57745;42.524;12.052;2023-02-28T09:25:37;1.40;;;0.98;;
58366;SDS011;57745;42.524;12.052;2023-02-28T09:28:10;1.38;;;0.85;;
58366;SDS011;57745;42.524;12.052;2023-02-28T09:30:36;1.70;;;1.02;;
58366;SDS011;57745;42.524;12.052;2023-02-28T09:33:02;1.13;;;0.80;;
58366;SDS011;57745;42.524;12.052;2023-02-28T09:35:27;2.03;;;0.80;;
58366;SDS011;57745;42.524;12.052;2023-02-28T09:37:53;1.90;;;1.00;;
58366;SDS011;57745;42.524;12.052;2023-02-28T09:40:19;1.05;;;0.80;;
58366;SDS011;57745;42.524;12.052;2023-02-28T09:42:48;1.15;;;0.90;;
58366;SDS011;57745;42.524;12.052;2023-02-28T09:45:19;3.70;;;1.00;;
58366;SDS011;57745;42.524;12.052;2023-02-28T09:47:59;1.92;;;0.70;;
58366;SDS011;57745;42.524;12.052;2023-02-28T09:53:03;1.35;;;0.75;;
58366;SDS011;57745;42.524;12.052;2023-02-28T09:55:40;1.13;;;0.80;;
58366;SDS011;57745;42.524;12.052;2023-02-28T09:58:14;0.77;;;0.60;;
58366;SDS011;57745;42.524;12.052;2023-02-28T10:00:46;1.35;;;0.70;;
58366;SDS011;57745;42.524;12.052;2023-02-28T10:03:30;1.38;;;0.63;;
58366;SDS011;57745;42.524;12.052;2023-02-28T10:11:34;1.65;;;0.70;;
58366;SDS011;57745;42.524;12.052;2023-02-28T10:14:14;1.30;;;0.68;;
58366;SDS011;57745;42.524;12.052;2023-02-28T10:19:22;2.00;;;0.80;;
58366;SDS011;57745;42.524;12.052;2023-02-28T10:22:10;1.38;;;0.70;;
58366;SDS011;57745;42.524;12.052;2023-02-28T10:27:17;2.70;;;0.90;;
58366;SDS011;57745;42.524;12.052;2023-02-28T10:29:46;2.00;;;0.70;;
58366;SDS011;57745;42.524;12.052;2023-02-28T10:32:24;1.85;;;1.02;;
58366;SDS011;57745;42.524;12.052;2023-02-28T10:37:48;1.15;;;0.70;;
58366;SDS011;57745;42.524;12.052;2023-02-28T10:42:58;2.22;;;0.85;;
58366;SDS011;57745;42.524;12.052;2023-02-28T10:45:24;1.60;;;0.77;;
58366;SDS011;57745;42.524;12.052;2023-02-28T10:47:55;1.85;;;0.95;;
58366;SDS011;57745;42.524;12.052;2023-02-28T10:56:02;3.28;;;1.30;;
58366;SDS011;57745;42.524;12.052;2023-02-28T11:04:50;4.85;;;1.90;;
58366;SDS011;57745;42.524;12.052;2023-02-28T11:09:37;3.17;;;1.40;;
58366;SDS011;57745;42.524;12.052;2023-02-28T11:12:17;2.60;;;1.30;;
58366;SDS011;57745;42.524;12.052;2023-02-28T11:14:51;2.25;;;1.30;;
58366;SDS011;57745;42.524;12.052;2023-02-28T11:17:30;2.17;;;1.15;;
58366;SDS011;57745;42.524;12.052;2023-02-28T11:20:01;2.42;;;1.30;;
58366;SDS011;57745;42.524;12.052;2023-02-28T11:22:33;1.25;;;0.80;;
58366;SDS011;57745;42.524;12.052;2023-02-28T11:25:06;2.15;;;1.27;;
58366;SDS011;57745;42.524;12.052;2023-02-28T11:27:48;1.50;;;1.02;;
58366;SDS011;57745;42.524;12.052;2023-02-28T11:30:25;1.48;;;0.85;;
58366;SDS011;57745;42.524;12.052;2023-02-28T11:32:57;1.55;;;0.70;;
58366;SDS011;57745;42.524;12.052;2023-02-28T11:37:54;2.28;;;0.80;;
58366;SDS011;57745;42.524;12.052;2023-02-28T11:40:31;2.15;;;1.25;;
58366;SDS011;57745;42.524;12.052;2023-02-28T11:48:27;2.00;;;0.90;;
58366;SDS011;57745;42.524;12.052;2023-02-28T12:04:38;1.50;;;1.00;;
58366;SDS011;57745;42.524;12.052;2023-02-28T12:16:40;2.10;;;1.40;;
58366;SDS011;57745;42.524;12.052;2023-02-28T12:19:15;1.58;;;1.17;;
58366;SDS011;57745;42.524;12.052;2023-02-28T12:27:07;1.60;;;1.02;;
58366;SDS011;57745;42.524;12.052;2023-02-28T12:29:46;3.08;;;1.10;;
58366;SDS011;57745;42.524;12.052;2023-02-28T12:35:04;1.55;;;1.17;;
58366;SDS011;57745;42.524;12.052;2023-02-28T12:37:44;1.92;;;1.10;;
58366;SDS011;57745;42.524;12.052;2023-02-28T12:40:19;2.50;;;1.30;;
58366;SDS011;57745;42.524;12.052;2023-02-28T12:42:51;3.05;;;1.40;;
58366;SDS011;57745;42.524;12.052;2023-02-28T12:48:04;3.03;;;1.95;;
58366;SDS011;57745;42.524;12.052;2023-02-28T12:50:33;2.10;;;1.00;;
58366;SDS011;57745;42.524;12.052;2023-02-28T12:53:15;1.35;;;0.98;;
58366;SDS011;57745;42.524;12.052;2023-02-28T12:55:45;1.80;;;1.10;;
58366;SDS011;57745;42.524;12.052;2023-02-28T13:06:59;4.00;;;2.50;;
58366;SDS011;57745;42.524;12.052;2023-02-28T13:09:53;3.60;;;2.08;;
58366;SDS011;57745;42.524;12.052;2023-02-28T13:12:21;3.80;;;1.90;;
58366;SDS011;57745;42.524;12.052;2023-02-28T13:14:48;4.40;;;1.75;;
58366;SDS011;57745;42.524;12.052;2023-02-28T13:17:21;3.28;;;1.80;;
58366;SDS011;57745;42.524;12.052;2023-02-28T13:22:20;3.15;;;1.60;;
58366;SDS011;57745;42.524;12.052;2023-02-28T13:27:50;2.22;;;1.20;;
58366;SDS011;57745;42.524;12.052;2023-02-28T13:33:33;2.88;;;1.50;;
58366;SDS011;57745;42.524;12.052;2023-02-28T14:00:19;2.30;;;1.10;;
58366;SDS011;57745;42.524;12.052;2023-02-28T14:02:58;2.05;;;1.30;;
58366;SDS011;57745;42.524;12.052;2023-02-28T14:05:37;4.10;;;1.63;;
58366;SDS011;57745;42.524;12.052;2023-02-28T14:08:24;1.90;;;1.42;;
58366;SDS011;57745;42.524;12.052;2023-02-28T14:10:50;2.20;;;1.48;;
58366;SDS011;57745;42.524;12.052;2023-02-28T14:13:41;3.50;;;1.60;;
58366;SDS011;57745;42.524;12.052;2023-02-28T14:16:16;2.13;;;1.20;;
58366;SDS011;57745;42.524;12.052;2023-02-28T14:19:21;3.58;;;1.42;;
58366;SDS011;57745;42.524;12.052;2023-02-28T14:21:55;3.50;;;1.42;;
58366;SDS011;57745;42.524;12.052;2023-02-28T14:27:43;1.70;;;1.20;;
58366;SDS011;57745;42.524;12.052;2023-02-28T14:41:18;2.60;;;1.23;;
58366;SDS011;57745;42.524;12.052;2023-02-28T14:43:57;2.03;;;1.40;;
58366;SDS011;57745;42.524;12.052;2023-02-28T14:46:26;2.50;;;1.17;;
58366;SDS011;57745;42.524;12.052;2023-02-28T14:48:59;3.35;;;2.05;;
58366;SDS011;57745;42.524;12.052;2023-02-28T14:51:25;3.08;;;2.53;;
58366;SDS011;57745;42.524;12.052;2023-02-28T14:53:52;3.28;;;2.22;;
58366;SDS011;57745;42.524;12.052;2023-02-28T14:56:25;5.90;;;2.83;;
58366;SDS011;57745;42.524;12.052;2023-02-28T14:58:56;7.70;;;3.65;;
58366;SDS011;57745;42.524;12.052;2023-02-28T15:01:23;5.18;;;2.42;;
58366;SDS011;57745;42.524;12.052;2023-02-28T15:04:03;4.25;;;2.50;;
58366;SDS011;57745;42.524;12.052;2023-02-28T15:06:31;4.20;;;2.63;;
58366;SDS011;57745;42.524;12.052;2023-02-28T15:09:07;4.50;;;2.53;;
58366;SDS011;57745;42.524;12.052;2023-02-28T15:11:35;2.92;;;2.13;;
58366;SDS011;57745;42.524;12.052;2023-02-28T15:14:02;2.80;;;2.00;;
58366;SDS011;57745;42.524;12.052;2023-02-28T15:18:59;6.95;;;3.65;;
58366;SDS011;57745;42.524;12.052;2023-02-28T15:21:31;5.93;;;4.28;;
58366;SDS011;57745;42.524;12.052;2023-02-28T15:24:04;6.25;;;3.67;;
58366;SDS011;57745;42.524;12.052;2023-02-28T15:26:52;14.90;;;8.52;;
58366;SDS011;57745;42.524;12.052;2023-02-28T15:29:24;9.40;;;5.60;;
58366;SDS011;57745;42.524;12.052;2023-02-28T15:39:51;3.70;;;2.75;;
58366;SDS011;57745;42.524;12.052;2023-02-28T15:42:19;4.20;;;2.63;;
58366;SDS011;57745;42.524;12.052;2023-02-28T15:44:46;3.55;;;2.53;;
58366;SDS011;57745;42.524;12.052;2023-02-28T15:47:19;3.95;;;2.33;;
58366;SDS011;57745;42.524;12.052;2023-02-28T15:52:18;4.88;;;2.45;;
58366;SDS011;57745;42.524;12.052;2023-02-28T15:54:47;4.20;;;2.60;;
58366;SDS011;57745;42.524;12.052;2023-02-28T15:57:24;2.83;;;2.22;;
58366;SDS011;57745;42.524;12.052;2023-02-28T15:59:56;3.45;;;2.20;;
58366;SDS011;57745;42.524;12.052;2023-02-28T16:02:35;3.85;;;2.60;;
58366;SDS011;57745;42.524;12.052;2023-02-28T16:07:42;4.85;;;2.90;;
58366;SDS011;57745;42.524;12.052;2023-02-28T16:10:09;4.40;;;2.92;;
58366;SDS011;57745;42.524;12.052;2023-02-28T16:12:37;4.95;;;2.88;;
58366;SDS011;57745;42.524;12.052;2023-02-28T16:15:08;3.80;;;2.78;;
58366;SDS011;57745;42.524;12.052;2023-02-28T16:17:42;7.70;;;6.90;;
58366;SDS011;57745;42.524;12.052;2023-02-28T16:20:12;6.25;;;5.20;;
58366;SDS011;57745;42.524;12.052;2023-02-28T16:25:10;13.40;;;8.23;;
58366;SDS011;57745;42.524;12.052;2023-02-28T16:27:37;11.00;;;7.05;;
58366;SDS011;57745;42.524;12.052;2023-02-28T16:30:03;8.45;;;6.25;;
58366;SDS011;57745;42.524;12.052;2023-02-28T16:32:30;8.25;;;7.03;;
58366;SDS011;57745;42.524;12.052;2023-02-28T16:34:59;8.05;;;6.68;;
58366;SDS011;57745;42.524;12.052;2023-02-28T16:37:26;7.70;;;5.93;;
58366;SDS011;57745;42.524;12.052;2023-02-28T16:39:51;6.70;;;4.75;;
58366;SDS011;57745;42.524;12.052;2023-02-28T16:42:24;6.88;;;4.90;;
58366;SDS011;57745;42.524;12.052;2023-02-28T16:44:52;6.43;;;4.85;;
58366;SDS011;57745;42.524;12.052;2023-02-28T16:47:18;5.53;;;3.70;;
58366;SDS011;57745;42.524;12.052;2023-02-28T16:49:44;5.85;;;3.35;;
58366;SDS011;57745;42.524;12.052;2023-02-28T16:52:10;5.68;;;3.72;;
58366;SDS011;57745;42.524;12.052;2023-02-28T16:54:37;6.13;;;3.20;;
58366;SDS011;57745;42.524;12.052;2023-02-28T16:57:03;4.82;;;2.60;;
58366;SDS011;57745;42.524;12.052;2023-02-28T16:59:30;4.30;;;2.65;;
58366;SDS011;57745;42.524;12.052;2023-02-28T17:01:56;4.10;;;2.50;;
58366;SDS011;57745;42.524;12.052;2023-02-28T17:04:25;4.88;;;2.70;;
58366;SDS011;57745;42.524;12.052;2023-02-28T17:06:51;3.97;;;2.95;;
58366;SDS011;57745;42.524;12.052;2023-02-28T17:09:18;3.83;;;2.70;;
58366;SDS011;57745;42.524;12.052;2023-02-28T17:11:46;19.77;;;10.80;;
58366;SDS011;57745;42.524;12.052;2023-02-28T17:14:12;10.73;;;6.53;;
58366;SDS011;57745;42.524;12.052;2023-02-28T17:16:38;10.68;;;5.93;;
58366;SDS011;57745;42.524;12.052;2023-02-28T17:19:06;6.50;;;4.15;;
58366;SDS011;57745;42.524;12.052;2023-02-28T17:21:36;7.38;;;3.38;;
58366;SDS011;57745;42.524;12.052;2023-02-28T17:24:01;4.55;;;3.60;;
58366;SDS011;57745;42.524;12.052;2023-02-28T17:26:27;3.85;;;3.15;;
58366;SDS011;57745;42.524;12.052;2023-02-28T17:28:53;4.25;;;2.90;;
58366;SDS011;57745;42.524;12.052;2023-02-28T17:31:21;6.75;;;4.72;;
58366;SDS011;57745;42.524;12.052;2023-02-28T17:33:47;7.40;;;4.90;;
58366;SDS011;57745;42.524;12.052;2023-02-28T17:36:13;7.47;;;4.53;;
58366;SDS011;57745;42.524;12.052;2023-02-28T17:38:40;8.32;;;4.72;;
58366;SDS011;57745;42.524;12.052;2023-02-28T17:41:06;7.57;;;4.95;;
58366;SDS011;57745;42.524;12.052;2023-02-28T17:43:31;7.07;;;4.78;;
58366;SDS011;57745;42.524;12.052;2023-02-28T17:45:57;5.72;;;4.20;;
58366;SDS011;57745;42.524;12.052;2023-02-28T17:48:23;5.15;;;3.60;;
58366;SDS011;57745;42.524;12.052;2023-02-28T17:50:49;6.05;;;4.07;;
58366;SDS011;57745;42.524;12.052;2023-02-28T17:53:14;6.90;;;4.40;;
58366;SDS011;57745;42.524;12.052;2023-02-28T17:55:40;7.25;;;4.35;;